Buoy 52912

sailwx.info

Track history (hours):
 
Tides and Currents Weather Stations Pressure Air Temp Water Temp Dewpoint Dewpoint Depression Visibility Wind Speed Wind Dir Waves Ship Positions

Drifting buoy 52912

Last reported at 2014-Dec-21 07:00 UTC. Time now 2014-Dec-21 10:44 UTC.
Position N 11°04' E 155°06'.

Water temperature 29.1 ° C

Date/timePositionNaut miles runAvg speedWind from/ knotsBaromVisibWave heightAir tempDewpointWater temp
2014-Dec-21 07:00N 11°04' E 155°06'0 0.5 29.1
2014-Dec-21 06:00N 11°03' E 155°06'2 0.6 29.1
2014-Dec-21 03:00N 11°03' E 155°08'0 0.1 29.1
2014-Dec-21 00:00N 11°03' E 155°08'0 0.0 29.1
2014-Dec-20 23:00N 11°03' E 155°08'3 1.1 29.1
2014-Dec-20 20:00N 11°03' E 155°11'1 0.6 29.1
2014-Dec-20 19:00N 11°02' E 155°11'0 0.1 29.1
2014-Dec-20 18:00N 11°02' E 155°11'2 1.8 29.1
2014-Dec-20 17:00N 11°02' E 155°13'1 1.2 29.1
2014-Dec-20 16:00N 11°01' E 155°14'0 0.0 29.1
2014-Dec-20 15:00N 11°01' E 155°14'1 0.2 29.1
2014-Dec-20 11:00N 11°00' E 155°15'0 0.0 29.1
2014-Dec-20 10:00N 11°00' E 155°15'3 1.0 29.1
2014-Dec-20 07:00N 10°59' E 155°17'0 0.1 29.1
2014-Dec-20 05:00N 10°59' E 155°18'2 1.1 29.1
2014-Dec-20 03:00N 10°59' E 155°20'3 0.8 29.2
2014-Dec-19 23:00N 11°00' E 155°23'0 0.0 29.1
2014-Dec-19 22:00N 11°00' E 155°23'0 0.0 29.1
2014-Dec-19 20:00N 11°00' E 155°23'0 0.3 29.1
2014-Dec-19 19:00N 11°01' E 155°23'0 0.4 29.1
2014-Dec-19 18:00N 11°01' E 155°23'1 1.4 29.1
2014-Dec-19 17:00N 11°00' E 155°24'2 1.5 29.1
2014-Dec-19 16:00N 11°00' E 155°26'0 0.0 29.1
2014-Dec-19 15:00N 11°00' E 155°26'1 0.2 29.1
2014-Dec-19 11:00N 11°00' E 155°27'1 0.9 29.1
2014-Dec-19 10:00N 11°01' E 155°26'0 0.1 29.1
2014-Dec-19 09:00N 11°01' E 155°26'1 1.2 29.1
2014-Dec-19 08:00N 11°01' E 155°27'0 0.1 29.1
2014-Dec-19 05:00N 11°00' E 155°28'1 1.1 29.2
2014-Dec-19 04:00N 11°00' E 155°29'1 0.6 29.2
2014-Dec-19 03:00N 10°60' E 155°29'0 0.0 29.2
2014-Dec-19 02:00N 10°60' E 155°29'1 0.4 29.1
2014-Dec-18 23:00N 11°00' E 155°31'1 0.3 29.1
2014-Dec-18 20:00N 10°59' E 155°31'1 0.7 29.1
2014-Dec-18 18:00N 10°59' E 155°33'1 0.6 29.1
2014-Dec-18 16:00N 10°59' E 155°34'0 0.0 29.1
2014-Dec-18 15:00N 10°59' E 155°34'1 0.5 29.1
2014-Dec-18 12:00N 10°59' E 155°35'0 0.4 29.2
2014-Dec-18 11:00N 10°59' E 155°36'2 0.8 29.2
2014-Dec-18 09:00N 10°58' E 155°37'0 0.0 29.2
2014-Dec-18 07:00N 10°58' E 155°37'1 0.9 29.2
2014-Dec-18 06:00N 10°57' E 155°38'1 0.8 29.2
2014-Dec-18 05:00N 10°57' E 155°38'0 0.0 29.2
2014-Dec-18 04:00N 10°57' E 155°38'1 0.8 29.2
2014-Dec-18 03:00N 10°58' E 155°39'0 0.0 29.2
2014-Dec-18 02:00N 10°58' E 155°39'1 0.7 29.2
2014-Dec-18 00:00N 10°58' E 155°41'2 2.0 29.2
2014-Dec-17 23:00N 10°57' E 155°42'1 0.2 29.2
2014-Dec-17 19:00N 10°57' E 155°43'2 0.8 29.1
2014-Dec-17 17:00N 10°57' E 155°45'0 0.0 29.2
2014-Dec-17 16:00N 10°57' E 155°45'2 0.4 29.2
2014-Dec-17 11:00N 10°57' E 155°47'0 0.1 29.2
2014-Dec-17 10:00N 10°57' E 155°47'1 0.6 29.2
2014-Dec-17 09:00N 10°58' E 155°47'1 0.8 29.2
2014-Dec-17 08:00N 10°57' E 155°47'1 0.5 29.2
2014-Dec-17 06:00N 10°57' E 155°48'1 0.2 29.2
2014-Dec-17 02:00N 10°57' E 155°49'0 0.0 29.2
2014-Dec-17 01:00N 10°57' E 155°49'3 0.7 29.2
2014-Dec-16 20:00N 10°56' E 155°52'1 0.9 29.2
2014-Dec-16 19:00N 10°56' E 155°53'0 0.0 29.2
2014-Dec-16 18:00N 10°56' E 155°53'1 1.4 29.2
2014-Dec-16 17:00N 10°56' E 155°54'6 0.3 29.2
2014-Dec-16 00:00N 10°54' E 156°00'0 0.0 29.2
2014-Dec-15 23:00N 10°54' E 156°00'0 0.0 29.2
2014-Dec-15 22:00N 10°54' E 156°00'1 0.7 29.2
2014-Dec-15 20:00N 10°53' E 156°01'1 1.3 29.2
2014-Dec-15 19:00N 10°54' E 156°02'0 0.0 29.2
2014-Dec-15 18:00N 10°54' E 156°02'3 1.0 29.2
2014-Dec-15 15:00N 10°54' E 156°05'0 0.0 29.2
2014-Dec-15 11:00N 10°54' E 156°05'1 1.2 29.2
2014-Dec-15 10:00N 10°54' E 156°07'0 0.0 29.2
2014-Dec-15 09:00N 10°54' E 156°07'1 0.1 29.2
2014-Dec-15 05:00N 10°54' E 156°07'1 0.6 29.3
2014-Dec-15 03:00N 10°54' E 156°08'0 0.0 29.3
2014-Dec-15 02:00N 10°54' E 156°08'2 1.2 29.3
2014-Dec-15 00:00N 10°54' E 156°11'0 0.0 29.2
2014-Dec-14 23:00N 10°54' E 156°11'0 0.0 29.2
2014-Dec-14 22:00N 10°54' E 156°11'2 0.8 29.2
2014-Dec-14 19:00N 10°53' E 156°13'1 0.6 29.2
2014-Dec-14 18:00N 10°53' E 156°13'0 0.0 29.2
2014-Dec-14 17:00N 10°53' E 156°13'1 0.6 29.2
2014-Dec-14 16:00N 10°53' E 156°14'2 2.1 29.3
2014-Dec-14 15:00N 10°52' E 156°16'0 0.0 29.2
2014-Dec-14 11:00N 10°52' E 156°16'2 2.1 29.3
2014-Dec-14 10:00N 10°53' E 156°17'1 0.7 29.3
2014-Dec-14 08:00N 10°52' E 156°19'0 0.0 29.3
2014-Dec-14 07:00N 10°52' E 156°19'2 0.9 29.3
2014-Dec-14 05:00N 10°52' E 156°20'0 0.0 29.3
2014-Dec-14 03:00N 10°52' E 156°20'1 0.4 29.3
2014-Dec-14 00:00N 10°53' E 156°21'8 0.3 29.3
2014-Dec-13 00:00N 10°52' E 156°29'1 0.8 29.3
2014-Dec-12 23:00N 10°52' E 156°30'2 0.6 29.3
2014-Dec-12 20:00N 10°52' E 156°32'0 0.2 29.2
2014-Dec-12 18:00N 10°52' E 156°32'5 0.4 29.3
2014-Dec-12 05:00N 10°51' E 156°36'1 0.4 29.3
2014-Dec-12 03:00N 10°50' E 156°37'0 0.0 29.3
2014-Dec-12 02:00N 10°50' E 156°37'2 0.7 29.3
2014-Dec-11 23:00N 10°50' E 156°39'3 0.6 29.3
2014-Dec-11 19:00N 10°50' E 156°42'1 0.9 29.3
2014-Dec-11 18:00N 10°50' E 156°41'1 1.2 29.3
2014-Dec-11 17:00N 10°51' E 156°42'0 0.4 29.3
2014-Dec-11 16:00N 10°50' E 156°42'0 0.0 29.3
2014-Dec-11 15:00N 10°50' E 156°42'3 0.8 29.3
2014-Dec-11 12:00N 10°50' E 156°45'   29.3
Track history (hours):
 
Tides and Currents Weather Stations Pressure Air Temp Water Temp Dewpoint Dewpoint Depression Visibility Wind Speed Wind Dir Waves Ship Positions

Drifting buoy 52912

Last reported at 2014-Dec-21 07:00 UTC. Time now 2014-Dec-21 10:44 UTC.
Position N 11°04' E 155°06'.

Water temperature 29.1 ° C

Date/timePositionNaut miles runAvg speedWind from/ knotsBaromVisibWave heightAir tempDewpointWater temp
2014-Dec-21 07:00N 11°04' E 155°06'0 0.5 29.1
2014-Dec-21 06:00N 11°03' E 155°06'2 0.6 29.1
2014-Dec-21 03:00N 11°03' E 155°08'0 0.1 29.1
2014-Dec-21 00:00N 11°03' E 155°08'0 0.0 29.1
2014-Dec-20 23:00N 11°03' E 155°08'3 1.1 29.1
2014-Dec-20 20:00N 11°03' E 155°11'1 0.6 29.1
2014-Dec-20 19:00N 11°02' E 155°11'0 0.1 29.1
2014-Dec-20 18:00N 11°02' E 155°11'2 1.8 29.1
2014-Dec-20 17:00N 11°02' E 155°13'1 1.2 29.1
2014-Dec-20 16:00N 11°01' E 155°14'0 0.0 29.1
2014-Dec-20 15:00N 11°01' E 155°14'1 0.2 29.1
2014-Dec-20 11:00N 11°00' E 155°15'0 0.0 29.1
2014-Dec-20 10:00N 11°00' E 155°15'3 1.0 29.1
2014-Dec-20 07:00N 10°59' E 155°17'0 0.1 29.1
2014-Dec-20 05:00N 10°59' E 155°18'2 1.1 29.1
2014-Dec-20 03:00N 10°59' E 155°20'3 0.8 29.2
2014-Dec-19 23:00N 11°00' E 155°23'0 0.0 29.1
2014-Dec-19 22:00N 11°00' E 155°23'0 0.0 29.1
2014-Dec-19 20:00N 11°00' E 155°23'0 0.3 29.1
2014-Dec-19 19:00N 11°01' E 155°23'0 0.4 29.1
2014-Dec-19 18:00N 11°01' E 155°23'1 1.4 29.1
2014-Dec-19 17:00N 11°00' E 155°24'2 1.5 29.1
2014-Dec-19 16:00N 11°00' E 155°26'0 0.0 29.1
2014-Dec-19 15:00N 11°00' E 155°26'1 0.2 29.1
2014-Dec-19 11:00N 11°00' E 155°27'1 0.9 29.1
2014-Dec-19 10:00N 11°01' E 155°26'0 0.1 29.1
2014-Dec-19 09:00N 11°01' E 155°26'1 1.2 29.1
2014-Dec-19 08:00N 11°01' E 155°27'0 0.1 29.1
2014-Dec-19 05:00N 11°00' E 155°28'1 1.1 29.2
2014-Dec-19 04:00N 11°00' E 155°29'1 0.6 29.2
2014-Dec-19 03:00N 10°60' E 155°29'0 0.0 29.2
2014-Dec-19 02:00N 10°60' E 155°29'1 0.4 29.1
2014-Dec-18 23:00N 11°00' E 155°31'1 0.3 29.1
2014-Dec-18 20:00N 10°59' E 155°31'1 0.7 29.1
2014-Dec-18 18:00N 10°59' E 155°33'1 0.6 29.1
2014-Dec-18 16:00N 10°59' E 155°34'0 0.0 29.1
2014-Dec-18 15:00N 10°59' E 155°34'1 0.5 29.1
2014-Dec-18 12:00N 10°59' E 155°35'0 0.4 29.2
2014-Dec-18 11:00N 10°59' E 155°36'2 0.8 29.2
2014-Dec-18 09:00N 10°58' E 155°37'0 0.0 29.2
2014-Dec-18 07:00N 10°58' E 155°37'1 0.9 29.2
2014-Dec-18 06:00N 10°57' E 155°38'1 0.8 29.2
2014-Dec-18 05:00N 10°57' E 155°38'0 0.0 29.2
2014-Dec-18 04:00N 10°57' E 155°38'1 0.8 29.2
2014-Dec-18 03:00N 10°58' E 155°39'0 0.0 29.2
2014-Dec-18 02:00N 10°58' E 155°39'1 0.7 29.2
2014-Dec-18 00:00N 10°58' E 155°41'2 2.0 29.2
2014-Dec-17 23:00N 10°57' E 155°42'1 0.2 29.2
2014-Dec-17 19:00N 10°57' E 155°43'2 0.8 29.1
2014-Dec-17 17:00N 10°57' E 155°45'0 0.0 29.2
2014-Dec-17 16:00N 10°57' E 155°45'2 0.4 29.2
2014-Dec-17 11:00N 10°57' E 155°47'0 0.1 29.2
2014-Dec-17 10:00N 10°57' E 155°47'1 0.6 29.2
2014-Dec-17 09:00N 10°58' E 155°47'1 0.8 29.2
2014-Dec-17 08:00N 10°57' E 155°47'1 0.5 29.2
2014-Dec-17 06:00N 10°57' E 155°48'1 0.2 29.2
2014-Dec-17 02:00N 10°57' E 155°49'0 0.0 29.2
2014-Dec-17 01:00N 10°57' E 155°49'3 0.7 29.2
2014-Dec-16 20:00N 10°56' E 155°52'1 0.9 29.2
2014-Dec-16 19:00N 10°56' E 155°53'0 0.0 29.2
2014-Dec-16 18:00N 10°56' E 155°53'1 1.4 29.2
2014-Dec-16 17:00N 10°56' E 155°54'6 0.3 29.2
2014-Dec-16 00:00N 10°54' E 156°00'0 0.0 29.2
2014-Dec-15 23:00N 10°54' E 156°00'0 0.0 29.2
2014-Dec-15 22:00N 10°54' E 156°00'1 0.7 29.2
2014-Dec-15 20:00N 10°53' E 156°01'1 1.3 29.2
2014-Dec-15 19:00N 10°54' E 156°02'0 0.0 29.2
2014-Dec-15 18:00N 10°54' E 156°02'3 1.0 29.2
2014-Dec-15 15:00N 10°54' E 156°05'0 0.0 29.2
2014-Dec-15 11:00N 10°54' E 156°05'1 1.2 29.2
2014-Dec-15 10:00N 10°54' E 156°07'0 0.0 29.2
2014-Dec-15 09:00N 10°54' E 156°07'1 0.1 29.2
2014-Dec-15 05:00N 10°54' E 156°07'1 0.6 29.3
2014-Dec-15 03:00N 10°54' E 156°08'0 0.0 29.3
2014-Dec-15 02:00N 10°54' E 156°08'2 1.2 29.3
2014-Dec-15 00:00N 10°54' E 156°11'0 0.0 29.2
2014-Dec-14 23:00N 10°54' E 156°11'0 0.0 29.2
2014-Dec-14 22:00N 10°54' E 156°11'2 0.8 29.2
2014-Dec-14 19:00N 10°53' E 156°13'1 0.6 29.2
2014-Dec-14 18:00N 10°53' E 156°13'0 0.0 29.2
2014-Dec-14 17:00N 10°53' E 156°13'1 0.6 29.2
2014-Dec-14 16:00N 10°53' E 156°14'2 2.1 29.3
2014-Dec-14 15:00N 10°52' E 156°16'0 0.0 29.2
2014-Dec-14 11:00N 10°52' E 156°16'2 2.1 29.3
2014-Dec-14 10:00N 10°53' E 156°17'1 0.7 29.3
2014-Dec-14 08:00N 10°52' E 156°19'0 0.0 29.3
2014-Dec-14 07:00N 10°52' E 156°19'2 0.9 29.3
2014-Dec-14 05:00N 10°52' E 156°20'0 0.0 29.3
2014-Dec-14 03:00N 10°52' E 156°20'1 0.4 29.3
2014-Dec-14 00:00N 10°53' E 156°21'8 0.3 29.3
2014-Dec-13 00:00N 10°52' E 156°29'1 0.8 29.3
2014-Dec-12 23:00N 10°52' E 156°30'2 0.6 29.3
2014-Dec-12 20:00N 10°52' E 156°32'0 0.2 29.2
2014-Dec-12 18:00N 10°52' E 156°32'5 0.4 29.3
2014-Dec-12 05:00N 10°51' E 156°36'1 0.4 29.3
2014-Dec-12 03:00N 10°50' E 156°37'0 0.0 29.3
2014-Dec-12 02:00N 10°50' E 156°37'2 0.7 29.3
2014-Dec-11 23:00N 10°50' E 156°39'3 0.6 29.3
2014-Dec-11 19:00N 10°50' E 156°42'1 0.9 29.3
2014-Dec-11 18:00N 10°50' E 156°41'1 1.2 29.3
2014-Dec-11 17:00N 10°51' E 156°42'0 0.4 29.3
2014-Dec-11 16:00N 10°50' E 156°42'0 0.0 29.3
2014-Dec-11 15:00N 10°50' E 156°42'3 0.8 29.3
2014-Dec-11 12:00N 10°50' E 156°45'   29.3

Dump ship's entire track history